sensor_id;sensor_type;location;lat;lon;timestamp;P1;durP1;ratioP1;P2;durP2;ratioP2
59193;SDS011;44967;48.598;15.650;2023-12-07T00:00:37;50.55;;;25.48;;
59193;SDS011;44967;48.598;15.650;2023-12-07T00:03:03;17.23;;;9.70;;
59193;SDS011;44967;48.598;15.650;2023-12-07T00:05:32;30.73;;;13.32;;
59193;SDS011;44967;48.598;15.650;2023-12-07T00:07:58;23.50;;;11.38;;
59193;SDS011;44967;48.598;15.650;2023-12-07T00:10:24;9.48;;;6.22;;
59193;SDS011;44967;48.598;15.650;2023-12-07T00:12:50;12.18;;;6.95;;
59193;SDS011;44967;48.598;15.650;2023-12-07T00:15:16;9.80;;;6.05;;
59193;SDS011;44967;48.598;15.650;2023-12-07T00:17:41;9.52;;;5.95;;
59193;SDS011;44967;48.598;15.650;2023-12-07T00:20:08;10.50;;;6.53;;
59193;SDS011;44967;48.598;15.650;2023-12-07T00:22:34;12.10;;;7.20;;
59193;SDS011;44967;48.598;15.650;2023-12-07T00:24:59;9.82;;;5.45;;
59193;SDS011;44967;48.598;15.650;2023-12-07T00:27:25;7.40;;;5.93;;
59193;SDS011;44967;48.598;15.650;2023-12-07T00:29:51;7.40;;;5.18;;
59193;SDS011;44967;48.598;15.650;2023-12-07T00:32:17;7.75;;;5.18;;
59193;SDS011;44967;48.598;15.650;2023-12-07T00:34:42;6.90;;;5.20;;
59193;SDS011;44967;48.598;15.650;2023-12-07T00:37:08;8.38;;;5.53;;
59193;SDS011;44967;48.598;15.650;2023-12-07T00:39:35;7.80;;;5.05;;
59193;SDS011;44967;48.598;15.650;2023-12-07T00:42:01;7.65;;;4.88;;
59193;SDS011;44967;48.598;15.650;2023-12-07T00:44:28;11.10;;;5.53;;
59193;SDS011;44967;48.598;15.650;2023-12-07T00:46:54;9.60;;;4.95;;
59193;SDS011;44967;48.598;15.650;2023-12-07T00:49:20;8.57;;;4.22;;
59193;SDS011;44967;48.598;15.650;2023-12-07T00:51:45;7.07;;;4.40;;
59193;SDS011;44967;48.598;15.650;2023-12-07T00:54:11;7.07;;;4.90;;
59193;SDS011;44967;48.598;15.650;2023-12-07T00:56:38;8.27;;;6.18;;
59193;SDS011;44967;48.598;15.650;2023-12-07T00:59:04;7.05;;;4.82;;
59193;SDS011;44967;48.598;15.650;2023-12-07T01:01:30;6.63;;;4.15;;
59193;SDS011;44967;48.598;15.650;2023-12-07T01:03:56;5.65;;;3.75;;
59193;SDS011;44967;48.598;15.650;2023-12-07T01:06:22;6.70;;;4.40;;
59193;SDS011;44967;48.598;15.650;2023-12-07T01:08:48;6.50;;;4.20;;
59193;SDS011;44967;48.598;15.650;2023-12-07T01:11:13;5.97;;;4.63;;
59193;SDS011;44967;48.598;15.650;2023-12-07T01:13:39;7.72;;;4.13;;
59193;SDS011;44967;48.598;15.650;2023-12-07T01:16:05;6.93;;;4.03;;
59193;SDS011;44967;48.598;15.650;2023-12-07T01:18:31;7.38;;;4.43;;
59193;SDS011;44967;48.598;15.650;2023-12-07T01:20:56;7.53;;;4.55;;
59193;SDS011;44967;48.598;15.650;2023-12-07T01:23:22;4.57;;;3.72;;
59193;SDS011;44967;48.598;15.650;2023-12-07T01:25:47;6.68;;;4.15;;
59193;SDS011;44967;48.598;15.650;2023-12-07T01:28:13;6.43;;;4.32;;
59193;SDS011;44967;48.598;15.650;2023-12-07T01:30:39;6.53;;;4.18;;
59193;SDS011;44967;48.598;15.650;2023-12-07T01:33:05;6.40;;;4.25;;
59193;SDS011;44967;48.598;15.650;2023-12-07T01:35:30;5.30;;;3.58;;
59193;SDS011;44967;48.598;15.650;2023-12-07T01:37:56;5.53;;;3.92;;
59193;SDS011;44967;48.598;15.650;2023-12-07T01:40:21;6.43;;;4.18;;
59193;SDS011;44967;48.598;15.650;2023-12-07T01:42:51;5.97;;;4.18;;
59193;SDS011;44967;48.598;15.650;2023-12-07T01:45:17;5.85;;;3.78;;
59193;SDS011;44967;48.598;15.650;2023-12-07T01:47:43;5.40;;;3.70;;
59193;SDS011;44967;48.598;15.650;2023-12-07T01:50:10;4.70;;;3.45;;
59193;SDS011;44967;48.598;15.650;2023-12-07T01:52:41;4.13;;;3.50;;
59193;SDS011;44967;48.598;15.650;2023-12-07T01:55:10;5.68;;;4.05;;
59193;SDS011;44967;48.598;15.650;2023-12-07T01:57:37;5.68;;;3.78;;
59193;SDS011;44967;48.598;15.650;2023-12-07T02:00:03;7.28;;;4.40;;
59193;SDS011;44967;48.598;15.650;2023-12-07T02:02:30;6.25;;;3.80;;
59193;SDS011;44967;48.598;15.650;2023-12-07T02:04:57;8.50;;;4.47;;
59193;SDS011;44967;48.598;15.650;2023-12-07T02:07:23;7.65;;;4.82;;
59193;SDS011;44967;48.598;15.650;2023-12-07T02:09:49;6.53;;;4.60;;
59193;SDS011;44967;48.598;15.650;2023-12-07T02:12:15;6.53;;;3.95;;
59193;SDS011;44967;48.598;15.650;2023-12-07T02:14:41;4.38;;;3.53;;
59193;SDS011;44967;48.598;15.650;2023-12-07T02:17:18;7.28;;;4.40;;
59193;SDS011;44967;48.598;15.650;2023-12-07T02:20:14;6.57;;;3.67;;
59193;SDS011;44967;48.598;15.650;2023-12-07T02:22:52;6.68;;;4.28;;
59193;SDS011;44967;48.598;15.650;2023-12-07T02:25:23;5.45;;;4.15;;
59193;SDS011;44967;48.598;15.650;2023-12-07T02:27:51;5.07;;;3.58;;
59193;SDS011;44967;48.598;15.650;2023-12-07T02:30:17;5.93;;;4.13;;
59193;SDS011;44967;48.598;15.650;2023-12-07T02:32:43;6.97;;;4.55;;
59193;SDS011;44967;48.598;15.650;2023-12-07T02:35:11;5.72;;;4.20;;
59193;SDS011;44967;48.598;15.650;2023-12-07T02:37:50;7.03;;;4.32;;
59193;SDS011;44967;48.598;15.650;2023-12-07T02:40:18;6.80;;;4.63;;
59193;SDS011;44967;48.598;15.650;2023-12-07T02:42:47;6.65;;;4.20;;
59193;SDS011;44967;48.598;15.650;2023-12-07T02:45:14;6.82;;;3.75;;
59193;SDS011;44967;48.598;15.650;2023-12-07T02:47:40;5.53;;;3.72;;
59193;SDS011;44967;48.598;15.650;2023-12-07T02:50:08;7.28;;;4.10;;
59193;SDS011;44967;48.598;15.650;2023-12-07T02:52:35;6.65;;;4.28;;
59193;SDS011;44967;48.598;15.650;2023-12-07T02:55:01;6.95;;;3.70;;
59193;SDS011;44967;48.598;15.650;2023-12-07T02:57:28;7.07;;;4.22;;
59193;SDS011;44967;48.598;15.650;2023-12-07T02:59:55;6.35;;;3.40;;
59193;SDS011;44967;48.598;15.650;2023-12-07T03:02:21;4.38;;;3.70;;
59193;SDS011;44967;48.598;15.650;2023-12-07T03:04:47;6.55;;;4.18;;
59193;SDS011;44967;48.598;15.650;2023-12-07T03:07:12;5.68;;;3.70;;
59193;SDS011;44967;48.598;15.650;2023-12-07T03:09:38;4.97;;;4.15;;
59193;SDS011;44967;48.598;15.650;2023-12-07T03:12:04;6.50;;;4.50;;
59193;SDS011;44967;48.598;15.650;2023-12-07T03:14:31;5.50;;;3.90;;
59193;SDS011;44967;48.598;15.650;2023-12-07T03:16:58;6.85;;;4.65;;
59193;SDS011;44967;48.598;15.650;2023-12-07T03:19:24;8.90;;;4.55;;
59193;SDS011;44967;48.598;15.650;2023-12-07T03:21:50;7.05;;;4.50;;
59193;SDS011;44967;48.598;15.650;2023-12-07T03:24:16;5.15;;;4.22;;
59193;SDS011;44967;48.598;15.650;2023-12-07T03:26:41;6.15;;;3.85;;
59193;SDS011;44967;48.598;15.650;2023-12-07T03:29:07;7.18;;;4.43;;
59193;SDS011;44967;48.598;15.650;2023-12-07T03:31:33;5.85;;;3.78;;
59193;SDS011;44967;48.598;15.650;2023-12-07T03:33:59;6.78;;;4.38;;
59193;SDS011;44967;48.598;15.650;2023-12-07T03:36:26;6.68;;;4.75;;
59193;SDS011;44967;48.598;15.650;2023-12-07T03:38:53;5.82;;;3.60;;
59193;SDS011;44967;48.598;15.650;2023-12-07T03:41:18;7.80;;;4.40;;
59193;SDS011;44967;48.598;15.650;2023-12-07T03:43:44;5.90;;;3.78;;
59193;SDS011;44967;48.598;15.650;2023-12-07T03:46:10;5.20;;;4.00;;
59193;SDS011;44967;48.598;15.650;2023-12-07T03:48:36;7.30;;;4.43;;
59193;SDS011;44967;48.598;15.650;2023-12-07T03:51:02;6.68;;;4.43;;
59193;SDS011;44967;48.598;15.650;2023-12-07T03:53:28;6.28;;;4.55;;
59193;SDS011;44967;48.598;15.650;2023-12-07T03:55:54;5.75;;;3.95;;
59193;SDS011;44967;48.598;15.650;2023-12-07T03:58:20;7.65;;;4.85;;
59193;SDS011;44967;48.598;15.650;2023-12-07T04:00:46;6.15;;;4.30;;
59193;SDS011;44967;48.598;15.650;2023-12-07T04:03:12;5.38;;;4.45;;
59193;SDS011;44967;48.598;15.650;2023-12-07T04:05:38;6.22;;;4.55;;
59193;SDS011;44967;48.598;15.650;2023-12-07T04:08:04;6.63;;;4.28;;
59193;SDS011;44967;48.598;15.650;2023-12-07T04:10:30;6.57;;;4.75;;
59193;SDS011;44967;48.598;15.650;2023-12-07T04:12:57;5.85;;;3.70;;
59193;SDS011;44967;48.598;15.650;2023-12-07T04:15:23;5.03;;;4.00;;
59193;SDS011;44967;48.598;15.650;2023-12-07T04:17:49;8.88;;;4.90;;
59193;SDS011;44967;48.598;15.650;2023-12-07T04:20:15;4.55;;;3.90;;
59193;SDS011;44967;48.598;15.650;2023-12-07T04:22:42;5.72;;;4.53;;
59193;SDS011;44967;48.598;15.650;2023-12-07T04:25:09;7.32;;;4.40;;
59193;SDS011;44967;48.598;15.650;2023-12-07T04:27:35;6.05;;;4.32;;
59193;SDS011;44967;48.598;15.650;2023-12-07T04:30:01;7.88;;;4.47;;
59193;SDS011;44967;48.598;15.650;2023-12-07T04:32:29;8.05;;;5.15;;
59193;SDS011;44967;48.598;15.650;2023-12-07T04:34:55;5.65;;;4.97;;
59193;SDS011;44967;48.598;15.650;2023-12-07T04:37:21;6.95;;;5.60;;
59193;SDS011;44967;48.598;15.650;2023-12-07T04:39:47;8.02;;;5.30;;
59193;SDS011;44967;48.598;15.650;2023-12-07T04:42:12;8.90;;;5.07;;
59193;SDS011;44967;48.598;15.650;2023-12-07T04:44:38;8.38;;;4.88;;
59193;SDS011;44967;48.598;15.650;2023-12-07T04:47:04;6.13;;;4.65;;
59193;SDS011;44967;48.598;15.650;2023-12-07T04:49:30;7.03;;;4.68;;
59193;SDS011;44967;48.598;15.650;2023-12-07T04:51:55;6.38;;;4.60;;
59193;SDS011;44967;48.598;15.650;2023-12-07T04:54:21;7.43;;;5.13;;
59193;SDS011;44967;48.598;15.650;2023-12-07T04:56:47;8.65;;;5.13;;
59193;SDS011;44967;48.598;15.650;2023-12-07T04:59:13;5.82;;;4.70;;
59193;SDS011;44967;48.598;15.650;2023-12-07T05:01:39;6.80;;;4.95;;
59193;SDS011;44967;48.598;15.650;2023-12-07T05:04:05;8.50;;;4.90;;
59193;SDS011;44967;48.598;15.650;2023-12-07T05:06:31;8.85;;;4.53;;
59193;SDS011;44967;48.598;15.650;2023-12-07T05:08:57;7.32;;;4.75;;
59193;SDS011;44967;48.598;15.650;2023-12-07T05:11:23;7.90;;;5.05;;
59193;SDS011;44967;48.598;15.650;2023-12-07T05:13:49;10.18;;;5.78;;
59193;SDS011;44967;48.598;15.650;2023-12-07T05:16:15;7.32;;;4.45;;
59193;SDS011;44967;48.598;15.650;2023-12-07T05:18:41;8.48;;;5.18;;
59193;SDS011;44967;48.598;15.650;2023-12-07T05:21:07;7.90;;;4.75;;
59193;SDS011;44967;48.598;15.650;2023-12-07T05:23:33;7.68;;;4.80;;
59193;SDS011;44967;48.598;15.650;2023-12-07T05:25:59;8.75;;;4.97;;
59193;SDS011;44967;48.598;15.650;2023-12-07T05:28:25;7.32;;;4.78;;
59193;SDS011;44967;48.598;15.650;2023-12-07T05:30:52;8.52;;;4.75;;
59193;SDS011;44967;48.598;15.650;2023-12-07T05:33:18;6.60;;;4.25;;
59193;SDS011;44967;48.598;15.650;2023-12-07T05:35:47;7.95;;;5.30;;
59193;SDS011;44967;48.598;15.650;2023-12-07T05:38:13;6.65;;;4.93;;
59193;SDS011;44967;48.598;15.650;2023-12-07T05:40:39;5.95;;;4.32;;
59193;SDS011;44967;48.598;15.650;2023-12-07T05:43:05;7.72;;;5.00;;
59193;SDS011;44967;48.598;15.650;2023-12-07T05:45:31;5.93;;;4.28;;
59193;SDS011;44967;48.598;15.650;2023-12-07T05:47:56;8.15;;;5.07;;
59193;SDS011;44967;48.598;15.650;2023-12-07T05:50:22;7.38;;;5.13;;
59193;SDS011;44967;48.598;15.650;2023-12-07T05:52:48;5.68;;;4.03;;
59193;SDS011;44967;48.598;15.650;2023-12-07T05:55:14;6.60;;;4.35;;
59193;SDS011;44967;48.598;15.650;2023-12-07T05:57:39;8.05;;;5.22;;
59193;SDS011;44967;48.598;15.650;2023-12-07T06:00:06;6.35;;;4.13;;
59193;SDS011;44967;48.598;15.650;2023-12-07T06:02:35;5.68;;;4.53;;
59193;SDS011;44967;48.598;15.650;2023-12-07T06:05:03;7.28;;;4.93;;
59193;SDS011;44967;48.598;15.650;2023-12-07T06:07:30;6.50;;;4.22;;
59193;SDS011;44967;48.598;15.650;2023-12-07T06:09:56;5.40;;;4.75;;
59193;SDS011;44967;48.598;15.650;2023-12-07T06:12:22;7.28;;;5.38;;
59193;SDS011;44967;48.598;15.650;2023-12-07T06:14:48;7.35;;;4.63;;
59193;SDS011;44967;48.598;15.650;2023-12-07T06:17:14;7.10;;;4.60;;
59193;SDS011;44967;48.598;15.650;2023-12-07T06:19:41;6.10;;;4.60;;
59193;SDS011;44967;48.598;15.650;2023-12-07T06:22:08;5.55;;;4.18;;
59193;SDS011;44967;48.598;15.650;2023-12-07T06:24:33;7.30;;;5.32;;
59193;SDS011;44967;48.598;15.650;2023-12-07T06:27:01;8.10;;;5.00;;
59193;SDS011;44967;48.598;15.650;2023-12-07T06:29:27;6.07;;;4.38;;
59193;SDS011;44967;48.598;15.650;2023-12-07T06:31:54;9.48;;;5.25;;
59193;SDS011;44967;48.598;15.650;2023-12-07T06:34:20;6.93;;;4.60;;
59193;SDS011;44967;48.598;15.650;2023-12-07T06:36:46;6.38;;;4.80;;
59193;SDS011;44967;48.598;15.650;2023-12-07T06:39:13;7.78;;;4.82;;
59193;SDS011;44967;48.598;15.650;2023-12-07T06:41:42;8.27;;;4.82;;
59193;SDS011;44967;48.598;15.650;2023-12-07T06:44:08;7.90;;;4.80;;
59193;SDS011;44967;48.598;15.650;2023-12-07T06:46:33;7.32;;;4.57;;
59193;SDS011;44967;48.598;15.650;2023-12-07T06:48:59;8.00;;;4.82;;
59193;SDS011;44967;48.598;15.650;2023-12-07T06:51:25;7.97;;;5.20;;
59193;SDS011;44967;48.598;15.650;2023-12-07T06:53:51;7.75;;;4.85;;
59193;SDS011;44967;48.598;15.650;2023-12-07T06:56:17;7.53;;;4.75;;
59193;SDS011;44967;48.598;15.650;2023-12-07T06:58:43;6.85;;;4.68;;
59193;SDS011;44967;48.598;15.650;2023-12-07T07:01:10;6.18;;;4.50;;
59193;SDS011;44967;48.598;15.650;2023-12-07T07:03:38;7.00;;;4.60;;
59193;SDS011;44967;48.598;15.650;2023-12-07T07:06:03;6.47;;;4.75;;
59193;SDS011;44967;48.598;15.650;2023-12-07T07:08:30;7.32;;;5.05;;
59193;SDS011;44967;48.598;15.650;2023-12-07T07:10:55;5.90;;;4.18;;
59193;SDS011;44967;48.598;15.650;2023-12-07T07:13:21;6.38;;;4.47;;
59193;SDS011;44967;48.598;15.650;2023-12-07T07:15:47;7.70;;;5.13;;
59193;SDS011;44967;48.598;15.650;2023-12-07T07:18:16;7.55;;;5.07;;
59193;SDS011;44967;48.598;15.650;2023-12-07T07:20:41;9.77;;;4.63;;
59193;SDS011;44967;48.598;15.650;2023-12-07T07:23:07;7.78;;;5.30;;
59193;SDS011;44967;48.598;15.650;2023-12-07T07:25:34;6.78;;;4.65;;
59193;SDS011;44967;48.598;15.650;2023-12-07T07:28:00;8.40;;;4.75;;
59193;SDS011;44967;48.598;15.650;2023-12-07T07:30:25;7.57;;;5.20;;
59193;SDS011;44967;48.598;15.650;2023-12-07T07:32:51;7.45;;;4.82;;
59193;SDS011;44967;48.598;15.650;2023-12-07T07:35:17;7.65;;;5.22;;
59193;SDS011;44967;48.598;15.650;2023-12-07T07:37:43;7.40;;;4.93;;
59193;SDS011;44967;48.598;15.650;2023-12-07T07:40:09;6.40;;;4.50;;
59193;SDS011;44967;48.598;15.650;2023-12-07T07:42:37;6.93;;;5.25;;
59193;SDS011;44967;48.598;15.650;2023-12-07T07:45:07;7.15;;;5.13;;
59193;SDS011;44967;48.598;15.650;2023-12-07T07:47:33;7.20;;;5.03;;
59193;SDS011;44967;48.598;15.650;2023-12-07T07:49:59;7.95;;;5.22;;
59193;SDS011;44967;48.598;15.650;2023-12-07T07:52:34;7.30;;;4.93;;
59193;SDS011;44967;48.598;15.650;2023-12-07T07:55:02;7.25;;;5.30;;
59193;SDS011;44967;48.598;15.650;2023-12-07T07:57:30;6.72;;;4.20;;
59193;SDS011;44967;48.598;15.650;2023-12-07T07:59:56;5.70;;;4.40;;
59193;SDS011;44967;48.598;15.650;2023-12-07T08:02:23;6.88;;;4.30;;
59193;SDS011;44967;48.598;15.650;2023-12-07T08:04:48;6.90;;;4.50;;
59193;SDS011;44967;48.598;15.650;2023-12-07T08:07:14;6.97;;;4.68;;
59193;SDS011;44967;48.598;15.650;2023-12-07T08:09:40;7.88;;;4.97;;
59193;SDS011;44967;48.598;15.650;2023-12-07T08:12:06;6.97;;;4.45;;
59193;SDS011;44967;48.598;15.650;2023-12-07T08:14:36;6.40;;;4.28;;
59193;SDS011;44967;48.598;15.650;2023-12-07T08:17:02;7.35;;;4.82;;
59193;SDS011;44967;48.598;15.650;2023-12-07T08:19:29;9.75;;;5.18;;
59193;SDS011;44967;48.598;15.650;2023-12-07T08:21:55;7.03;;;4.90;;
59193;SDS011;44967;48.598;15.650;2023-12-07T08:24:20;8.05;;;5.05;;
59193;SDS011;44967;48.598;15.650;2023-12-07T08:26:46;7.07;;;4.65;;
59193;SDS011;44967;48.598;15.650;2023-12-07T08:29:12;7.28;;;4.70;;
59193;SDS011;44967;48.598;15.650;2023-12-07T08:31:40;7.50;;;5.05;;
59193;SDS011;44967;48.598;15.650;2023-12-07T08:34:05;7.15;;;5.38;;
59193;SDS011;44967;48.598;15.650;2023-12-07T08:36:31;6.28;;;4.40;;
59193;SDS011;44967;48.598;15.650;2023-12-07T08:38:57;5.38;;;4.00;;
59193;SDS011;44967;48.598;15.650;2023-12-07T08:41:23;7.32;;;5.38;;
59193;SDS011;44967;48.598;15.650;2023-12-07T08:43:48;7.15;;;5.20;;
59193;SDS011;44967;48.598;15.650;2023-12-07T08:46:14;8.45;;;5.13;;
59193;SDS011;44967;48.598;15.650;2023-12-07T08:48:40;8.35;;;5.00;;
59193;SDS011;44967;48.598;15.650;2023-12-07T08:51:05;7.65;;;5.50;;
59193;SDS011;44967;48.598;15.650;2023-12-07T08:53:34;7.70;;;5.10;;
59193;SDS011;44967;48.598;15.650;2023-12-07T08:56:01;7.93;;;5.20;;
59193;SDS011;44967;48.598;15.650;2023-12-07T08:58:27;10.30;;;5.88;;
59193;SDS011;44967;48.598;15.650;2023-12-07T09:00:53;9.35;;;4.93;;
59193;SDS011;44967;48.598;15.650;2023-12-07T09:03:19;8.80;;;5.05;;
59193;SDS011;44967;48.598;15.650;2023-12-07T09:05:45;7.25;;;5.25;;
59193;SDS011;44967;48.598;15.650;2023-12-07T09:08:10;8.13;;;5.35;;
59193;SDS011;44967;48.598;15.650;2023-12-07T09:10:36;7.43;;;5.38;;
59193;SDS011;44967;48.598;15.650;2023-12-07T09:13:02;6.63;;;4.75;;
59193;SDS011;44967;48.598;15.650;2023-12-07T09:15:27;7.65;;;5.40;;
59193;SDS011;44967;48.598;15.650;2023-12-07T09:17:53;6.97;;;5.05;;
59193;SDS011;44967;48.598;15.650;2023-12-07T09:20:20;7.38;;;4.88;;
59193;SDS011;44967;48.598;15.650;2023-12-07T09:22:46;9.25;;;4.78;;
59193;SDS011;44967;48.598;15.650;2023-12-07T09:25:13;8.00;;;5.43;;
59193;SDS011;44967;48.598;15.650;2023-12-07T09:27:42;7.63;;;6.00;;
59193;SDS011;44967;48.598;15.650;2023-12-07T09:30:08;7.20;;;4.82;;
59193;SDS011;44967;48.598;15.650;2023-12-07T09:32:38;7.90;;;5.50;;
59193;SDS011;44967;48.598;15.650;2023-12-07T09:35:05;6.90;;;4.75;;
59193;SDS011;44967;48.598;15.650;2023-12-07T09:37:33;7.63;;;5.10;;
59193;SDS011;44967;48.598;15.650;2023-12-07T09:39:59;8.07;;;5.45;;
59193;SDS011;44967;48.598;15.650;2023-12-07T09:42:27;7.70;;;4.75;;
59193;SDS011;44967;48.598;15.650;2023-12-07T09:44:54;7.65;;;4.93;;
59193;SDS011;44967;48.598;15.650;2023-12-07T09:47:19;9.82;;;5.93;;
59193;SDS011;44967;48.598;15.650;2023-12-07T09:49:46;7.82;;;5.57;;
59193;SDS011;44967;48.598;15.650;2023-12-07T09:52:11;10.35;;;5.80;;
59193;SDS011;44967;48.598;15.650;2023-12-07T09:54:42;10.02;;;6.32;;
59193;SDS011;44967;48.598;15.650;2023-12-07T09:57:10;9.20;;;5.38;;
59193;SDS011;44967;48.598;15.650;2023-12-07T09:59:35;11.18;;;6.70;;
59193;SDS011;44967;48.598;15.650;2023-12-07T10:02:02;7.65;;;6.13;;
59193;SDS011;44967;48.598;15.650;2023-12-07T10:04:27;8.07;;;5.53;;
59193;SDS011;44967;48.598;15.650;2023-12-07T10:06:53;9.13;;;6.07;;
59193;SDS011;44967;48.598;15.650;2023-12-07T10:09:19;9.65;;;6.10;;
59193;SDS011;44967;48.598;15.650;2023-12-07T10:11:46;9.25;;;6.38;;
59193;SDS011;44967;48.598;15.650;2023-12-07T10:14:13;9.10;;;5.68;;
59193;SDS011;44967;48.598;15.650;2023-12-07T10:17:01;9.48;;;5.85;;
59193;SDS011;44967;48.598;15.650;2023-12-07T10:19:25;10.82;;;6.47;;
59193;SDS011;44967;48.598;15.650;2023-12-07T10:21:52;8.93;;;5.93;;
59193;SDS011;44967;48.598;15.650;2023-12-07T10:24:20;8.57;;;5.45;;
59193;SDS011;44967;48.598;15.650;2023-12-07T10:26:47;8.40;;;5.55;;
59193;SDS011;44967;48.598;15.650;2023-12-07T10:29:14;8.27;;;5.82;;
59193;SDS011;44967;48.598;15.650;2023-12-07T10:31:42;8.85;;;5.88;;
59193;SDS011;44967;48.598;15.650;2023-12-07T10:34:09;8.70;;;5.93;;
59193;SDS011;44967;48.598;15.650;2023-12-07T10:36:37;9.25;;;6.05;;
59193;SDS011;44967;48.598;15.650;2023-12-07T10:39:03;10.85;;;6.43;;
59193;SDS011;44967;48.598;15.650;2023-12-07T10:41:33;11.52;;;7.22;;
59193;SDS011;44967;48.598;15.650;2023-12-07T10:44:00;8.65;;;6.00;;
59193;SDS011;44967;48.598;15.650;2023-12-07T10:46:27;7.72;;;5.18;;
59193;SDS011;44967;48.598;15.650;2023-12-07T10:48:55;8.18;;;5.82;;
59193;SDS011;44967;48.598;15.650;2023-12-07T10:54:07;8.18;;;5.82;;
59193;SDS011;44967;48.598;15.650;2023-12-07T10:56:43;10.95;;;6.32;;
59193;SDS011;44967;48.598;15.650;2023-12-07T10:59:12;8.95;;;5.78;;
59193;SDS011;44967;48.598;15.650;2023-12-07T11:01:39;10.57;;;6.60;;
59193;SDS011;44967;48.598;15.650;2023-12-07T11:04:06;10.07;;;6.68;;
59193;SDS011;44967;48.598;15.650;2023-12-07T11:06:33;8.88;;;6.47;;
59193;SDS011;44967;48.598;15.650;2023-12-07T11:09:01;10.25;;;5.85;;
59193;SDS011;44967;48.598;15.650;2023-12-07T11:11:36;8.95;;;6.20;;
59193;SDS011;44967;48.598;15.650;2023-12-07T11:14:09;7.65;;;5.25;;
59193;SDS011;44967;48.598;15.650;2023-12-07T11:16:42;9.38;;;6.25;;
59193;SDS011;44967;48.598;15.650;2023-12-07T11:19:51;11.93;;;6.85;;
59193;SDS011;44967;48.598;15.650;2023-12-07T11:21:58;11.35;;;6.25;;
59193;SDS011;44967;48.598;15.650;2023-12-07T11:24:25;9.63;;;6.35;;
59193;SDS011;44967;48.598;15.650;2023-12-07T11:26:57;8.13;;;6.40;;
59193;SDS011;44967;48.598;15.650;2023-12-07T11:29:24;8.65;;;5.43;;
59193;SDS011;44967;48.598;15.650;2023-12-07T11:31:51;9.48;;;6.40;;
59193;SDS011;44967;48.598;15.650;2023-12-07T11:34:40;11.57;;;5.80;;
59193;SDS011;44967;48.598;15.650;2023-12-07T11:37:10;9.57;;;5.75;;
59193;SDS011;44967;48.598;15.650;2023-12-07T11:39:44;9.30;;;6.45;;
59193;SDS011;44967;48.598;15.650;2023-12-07T11:42:15;8.73;;;5.97;;
59193;SDS011;44967;48.598;15.650;2023-12-07T11:44:42;9.23;;;5.97;;
59193;SDS011;44967;48.598;15.650;2023-12-07T11:47:18;9.13;;;6.00;;
59193;SDS011;44967;48.598;15.650;2023-12-07T11:49:46;8.90;;;5.80;;
59193;SDS011;44967;48.598;15.650;2023-12-07T11:52:13;9.23;;;5.55;;
59193;SDS011;44967;48.598;15.650;2023-12-07T11:54:40;8.02;;;5.90;;
59193;SDS011;44967;48.598;15.650;2023-12-07T11:57:07;9.60;;;5.50;;
59193;SDS011;44967;48.598;15.650;2023-12-07T11:59:33;11.10;;;6.22;;
59193;SDS011;44967;48.598;15.650;2023-12-07T12:01:59;11.50;;;6.15;;
59193;SDS011;44967;48.598;15.650;2023-12-07T12:04:27;11.48;;;6.40;;
59193;SDS011;44967;48.598;15.650;2023-12-07T12:06:53;8.90;;;6.30;;
59193;SDS011;44967;48.598;15.650;2023-12-07T12:09:19;8.35;;;5.82;;
59193;SDS011;44967;48.598;15.650;2023-12-07T12:11:45;10.77;;;6.38;;
59193;SDS011;44967;48.598;15.650;2023-12-07T12:14:14;9.15;;;6.15;;
59193;SDS011;44967;48.598;15.650;2023-12-07T12:16:47;9.77;;;6.10;;
59193;SDS011;44967;48.598;15.650;2023-12-07T12:19:13;9.10;;;5.78;;
59193;SDS011;44967;48.598;15.650;2023-12-07T12:21:41;9.85;;;6.43;;
59193;SDS011;44967;48.598;15.650;2023-12-07T12:24:09;11.23;;;6.47;;
59193;SDS011;44967;48.598;15.650;2023-12-07T12:26:37;8.98;;;6.57;;
59193;SDS011;44967;48.598;15.650;2023-12-07T12:29:05;8.05;;;5.63;;
59193;SDS011;44967;48.598;15.650;2023-12-07T12:31:36;7.30;;;5.57;;
59193;SDS011;44967;48.598;15.650;2023-12-07T12:34:02;7.78;;;5.68;;
59193;SDS011;44967;48.598;15.650;2023-12-07T12:36:27;10.30;;;5.97;;
59193;SDS011;44967;48.598;15.650;2023-12-07T12:38:55;10.07;;;5.63;;
59193;SDS011;44967;48.598;15.650;2023-12-07T12:41:24;8.40;;;5.50;;
59193;SDS011;44967;48.598;15.650;2023-12-07T12:43:49;8.63;;;5.63;;
59193;SDS011;44967;48.598;15.650;2023-12-07T12:46:17;10.40;;;6.45;;
59193;SDS011;44967;48.598;15.650;2023-12-07T12:48:56;10.23;;;6.25;;
59193;SDS011;44967;48.598;15.650;2023-12-07T12:51:26;7.82;;;5.50;;
59193;SDS011;44967;48.598;15.650;2023-12-07T12:53:55;9.45;;;5.75;;
59193;SDS011;44967;48.598;15.650;2023-12-07T12:56:22;7.43;;;6.05;;
59193;SDS011;44967;48.598;15.650;2023-12-07T12:58:51;9.98;;;6.07;;
59193;SDS011;44967;48.598;15.650;2023-12-07T13:01:21;8.68;;;5.97;;
59193;SDS011;44967;48.598;15.650;2023-12-07T13:03:48;7.20;;;4.75;;
59193;SDS011;44967;48.598;15.650;2023-12-07T13:06:15;6.28;;;4.25;;
59193;SDS011;44967;48.598;15.650;2023-12-07T13:08:45;6.72;;;4.85;;
59193;SDS011;44967;48.598;15.650;2023-12-07T13:11:18;7.63;;;4.78;;
59193;SDS011;44967;48.598;15.650;2023-12-07T13:13:45;8.57;;;5.40;;
59193;SDS011;44967;48.598;15.650;2023-12-07T13:16:15;9.18;;;5.28;;
59193;SDS011;44967;48.598;15.650;2023-12-07T13:18:41;5.93;;;4.35;;
59193;SDS011;44967;48.598;15.650;2023-12-07T13:21:08;10.05;;;6.60;;
59193;SDS011;44967;48.598;15.650;2023-12-07T13:23:37;7.30;;;4.97;;
59193;SDS011;44967;48.598;15.650;2023-12-07T13:26:02;7.47;;;4.97;;
59193;SDS011;44967;48.598;15.650;2023-12-07T13:28:28;7.35;;;4.60;;
59193;SDS011;44967;48.598;15.650;2023-12-07T13:30:54;13.25;;;5.70;;
59193;SDS011;44967;48.598;15.650;2023-12-07T13:33:20;9.95;;;5.50;;
59193;SDS011;44967;48.598;15.650;2023-12-07T13:35:45;9.98;;;5.22;;
59193;SDS011;44967;48.598;15.650;2023-12-07T13:38:11;9.77;;;5.50;;
59193;SDS011;44967;48.598;15.650;2023-12-07T13:40:36;7.68;;;5.20;;
59193;SDS011;44967;48.598;15.650;2023-12-07T13:43:02;8.10;;;5.35;;
59193;SDS011;44967;48.598;15.650;2023-12-07T13:45:28;7.13;;;5.10;;
59193;SDS011;44967;48.598;15.650;2023-12-07T13:47:54;8.00;;;5.55;;
59193;SDS011;44967;48.598;15.650;2023-12-07T13:50:20;8.50;;;5.35;;
59193;SDS011;44967;48.598;15.650;2023-12-07T13:52:45;7.70;;;5.05;;
59193;SDS011;44967;48.598;15.650;2023-12-07T13:55:11;10.40;;;6.07;;
59193;SDS011;44967;48.598;15.650;2023-12-07T13:57:37;10.57;;;5.85;;
59193;SDS011;44967;48.598;15.650;2023-12-07T14:00:04;8.32;;;5.28;;
59193;SDS011;44967;48.598;15.650;2023-12-07T14:02:30;7.60;;;5.30;;
59193;SDS011;44967;48.598;15.650;2023-12-07T14:04:56;8.93;;;5.75;;
59193;SDS011;44967;48.598;15.650;2023-12-07T14:07:21;8.05;;;5.70;;
59193;SDS011;44967;48.598;15.650;2023-12-07T14:09:50;7.53;;;5.07;;
59193;SDS011;44967;48.598;15.650;2023-12-07T14:12:16;8.75;;;5.88;;
59193;SDS011;44967;48.598;15.650;2023-12-07T14:14:43;10.40;;;6.30;;
59193;SDS011;44967;48.598;15.650;2023-12-07T14:17:14;10.30;;;5.55;;
59193;SDS011;44967;48.598;15.650;2023-12-07T14:19:41;11.40;;;6.70;;
59193;SDS011;44967;48.598;15.650;2023-12-07T14:22:08;6.75;;;5.47;;
59193;SDS011;44967;48.598;15.650;2023-12-07T14:24:37;10.45;;;5.95;;
59193;SDS011;44967;48.598;15.650;2023-12-07T14:27:03;9.90;;;6.03;;
59193;SDS011;44967;48.598;15.650;2023-12-07T14:29:30;7.20;;;5.60;;
59193;SDS011;44967;48.598;15.650;2023-12-07T14:31:57;8.52;;;5.53;;
59193;SDS011;44967;48.598;15.650;2023-12-07T14:34:24;10.98;;;6.40;;